createdAt,value
2023-06-13T00:00:46.643Z,53.12
2023-06-13T00:01:46.604Z,53.22
2023-06-13T00:02:46.559Z,53.02
2023-06-13T00:03:46.612Z,53.02
2023-06-13T00:04:46.560Z,53.12
2023-06-13T00:05:46.756Z,53.22
2023-06-13T00:06:46.592Z,53.12
2023-06-13T00:07:46.524Z,53.12
2023-06-13T00:08:46.539Z,53.02
2023-06-13T00:09:46.531Z,53.22
2023-06-13T00:10:46.463Z,53.12
2023-06-13T00:11:46.541Z,53.12
2023-06-13T00:12:46.465Z,53.25
2023-06-13T00:13:46.481Z,53.34
2023-06-13T00:14:46.424Z,53.32
2023-06-13T00:15:47.334Z,53.22
2023-06-13T00:16:46.412Z,53.12
2023-06-13T00:17:46.532Z,53.42
2023-06-13T00:18:46.493Z,53.55
2023-06-13T00:19:46.376Z,53.65
2023-06-13T00:20:46.359Z,53.96
2023-06-13T00:21:46.372Z,53.96
2023-06-13T00:22:46.498Z,53.85
2023-06-13T00:23:46.400Z,53.75
2023-06-13T00:24:46.337Z,53.75
2023-06-13T00:25:46.313Z,53.65
2023-06-13T00:26:46.301Z,53.55
2023-06-13T00:27:46.344Z,53.55
2023-06-13T00:28:46.281Z,53.55
2023-06-13T00:29:46.283Z,53.55
2023-06-13T00:30:46.299Z,53.65
2023-06-13T00:31:46.307Z,53.85
2023-06-13T00:32:46.314Z,53.85
2023-06-13T00:33:46.241Z,54.05
2023-06-13T00:34:47.133Z,54.39
2023-06-13T00:35:46.216Z,54.49
2023-06-13T00:36:46.189Z,54.79
2023-06-13T00:37:46.318Z,54.99
2023-06-13T00:38:46.178Z,55.20
2023-06-13T00:39:46.166Z,55.43
2023-06-13T00:40:46.152Z,55.53
2023-06-13T00:41:46.144Z,55.63
2023-06-13T00:42:46.164Z,55.73
2023-06-13T00:43:46.117Z,56.04
2023-06-13T00:44:46.112Z,56.13
2023-06-13T00:45:46.115Z,55.93
2023-06-13T00:46:46.104Z,55.63
2023-06-13T00:47:46.217Z,55.83
2023-06-13T00:48:46.061Z,56.13
2023-06-13T00:49:46.085Z,56.13
2023-06-13T00:50:46.303Z,55.80
2023-06-13T00:51:46.096Z,55.80
2023-06-13T00:52:46.041Z,55.60
2023-06-13T00:53:46.068Z,55.50
2023-06-13T00:54:46.002Z,55.40
2023-06-13T00:55:46.013Z,55.40
2023-06-13T00:56:45.979Z,55.50
2023-06-13T00:57:46.023Z,55.73
2023-06-13T00:58:45.954Z,55.93
2023-06-13T00:59:45.960Z,55.93
2023-06-13T01:00:45.955Z,55.73
2023-06-13T01:01:45.949Z,55.63
2023-06-13T01:02:45.982Z,55.63
2023-06-13T01:03:45.911Z,55.73
2023-06-13T01:04:45.920Z,55.83
2023-06-13T01:05:45.901Z,55.83
2023-06-13T01:06:45.874Z,55.93
2023-06-13T01:07:45.941Z,56.04
2023-06-13T01:08:45.881Z,56.04
2023-06-13T01:09:45.851Z,56.13
2023-06-13T01:10:45.828Z,56.24
2023-06-13T01:11:45.854Z,56.44
2023-06-13T01:12:45.819Z,56.44
2023-06-13T01:13:47.800Z,56.34
2023-06-13T01:14:45.786Z,56.74
2023-06-13T01:15:45.801Z,56.77
2023-06-13T01:16:45.831Z,57.18
2023-06-13T01:17:45.842Z,57.28
2023-06-13T01:18:45.746Z,57.38
2023-06-13T01:19:45.748Z,57.59
2023-06-13T01:20:46.211Z,57.68
2023-06-13T01:21:45.772Z,57.79
2023-06-13T01:22:45.694Z,57.89
2023-06-13T01:23:45.707Z,58.02
2023-06-13T01:24:45.689Z,58.02
2023-06-13T01:25:45.707Z,58.22
2023-06-13T01:26:45.714Z,58.33
2023-06-13T01:27:45.754Z,58.42
2023-06-13T01:28:46.073Z,58.22
2023-06-13T01:29:45.643Z,58.12
2023-06-13T01:30:45.632Z,58.22
2023-06-13T01:31:45.666Z,58.33
2023-06-13T01:32:45.738Z,58.33
2023-06-13T01:33:45.611Z,58.42
2023-06-13T01:34:45.588Z,58.53
2023-06-13T01:35:45.579Z,58.22
2023-06-13T01:36:45.774Z,58.22
2023-06-13T01:37:45.602Z,58.22
2023-06-13T01:38:46.353Z,58.12
2023-06-13T01:39:45.544Z,58.22
2023-06-13T01:40:45.531Z,58.22
2023-06-13T01:41:45.528Z,58.33
2023-06-13T01:42:45.538Z,58.33
2023-06-13T01:43:45.492Z,57.92
2023-06-13T01:44:45.472Z,58.02
2023-06-13T01:45:45.509Z,58.22
2023-06-13T01:46:45.453Z,58.33
2023-06-13T01:47:45.530Z,58.63
2023-06-13T01:48:45.440Z,58.73
2023-06-13T01:49:45.445Z,58.86
2023-06-13T01:50:45.416Z,59.27
2023-06-13T01:51:45.414Z,59.27
2023-06-13T01:52:46.396Z,59.27
2023-06-13T01:53:45.382Z,59.57
2023-06-13T01:54:47.204Z,59.67
2023-06-13T01:55:45.362Z,59.57
2023-06-13T01:56:45.362Z,59.57
2023-06-13T01:57:45.316Z,59.88
2023-06-13T01:58:45.369Z,59.67
2023-06-13T01:59:45.350Z,59.47
2023-06-13T02:00:45.355Z,59.67
2023-06-13T02:01:45.374Z,60.08
2023-06-13T02:02:45.323Z,59.98
2023-06-13T02:03:45.334Z,60.38
2023-06-13T02:04:47.322Z,60.38
2023-06-13T02:05:45.235Z,60.69
2023-06-13T02:06:46.202Z,60.72
2023-06-13T02:07:45.188Z,60.82
2023-06-13T02:08:45.222Z,60.92
2023-06-13T02:09:45.174Z,61.02
2023-06-13T02:10:45.166Z,61.33
2023-06-13T02:11:45.387Z,61.56
2023-06-13T02:12:45.148Z,61.76
2023-06-13T02:13:45.174Z,61.76
2023-06-13T02:14:45.120Z,62.07
2023-06-13T02:15:45.084Z,62.61
2023-06-13T02:16:45.287Z,62.61
2023-06-13T02:17:45.118Z,62.61
2023-06-13T02:18:45.115Z,62.71
2023-06-13T02:19:45.546Z,63.01
2023-06-13T02:20:45.870Z,63.01
2023-06-13T02:21:45.031Z,63.22
2023-06-13T02:22:45.022Z,63.32
2023-06-13T02:23:45.021Z,63.32
2023-06-13T02:24:45.018Z,63.22
2023-06-13T02:25:44.982Z,63.22
2023-06-13T02:26:44.986Z,63.22
2023-06-13T02:27:44.967Z,63.22
2023-06-13T02:28:44.978Z,63.53
2023-06-13T02:29:44.978Z,63.53
2023-06-13T02:30:44.931Z,63.62
2023-06-13T02:31:45.022Z,63.83
2023-06-13T02:32:45.033Z,64.03
2023-06-13T02:33:44.927Z,64.23
2023-06-13T02:34:44.961Z,64.34
2023-06-13T02:35:44.877Z,64.44
2023-06-13T02:36:44.874Z,64.57
2023-06-13T02:37:44.853Z,64.67
2023-06-13T02:38:44.887Z,64.87
2023-06-13T02:39:44.850Z,65.08
2023-06-13T02:40:44.834Z,65.08
2023-06-13T02:41:44.811Z,65.28
2023-06-13T02:42:44.810Z,65.28
2023-06-13T02:43:44.784Z,65.19
2023-06-13T02:44:44.841Z,65.19
2023-06-13T02:45:44.776Z,65.39
2023-06-13T02:46:44.803Z,65.39
2023-06-13T02:47:44.812Z,65.49
2023-06-13T02:48:44.879Z,66.00
2023-06-13T02:49:44.786Z,66.33
2023-06-13T02:50:45.424Z,66.64
2023-06-13T02:51:44.703Z,66.54
2023-06-13T02:52:44.708Z,66.64
2023-06-13T02:53:44.696Z,66.54
2023-06-13T02:54:44.718Z,66.33
2023-06-13T02:55:44.677Z,66.54
2023-06-13T02:56:44.650Z,66.85
2023-06-13T02:57:44.645Z,66.74
2023-06-13T02:58:44.673Z,66.54
2023-06-13T02:59:44.639Z,66.74
2023-06-13T03:00:44.637Z,67.25
2023-06-13T03:01:44.651Z,67.15
2023-06-13T03:02:44.677Z,66.94
2023-06-13T03:03:44.592Z,67.15
2023-06-13T03:04:44.588Z,67.05
2023-06-13T03:05:44.573Z,67.15
2023-06-13T03:06:44.604Z,67.35
2023-06-13T03:07:44.668Z,67.76
2023-06-13T03:08:45.376Z,67.76
2023-06-13T03:09:44.515Z,67.66
2023-06-13T03:10:44.520Z,67.86
2023-06-13T03:11:44.542Z,67.96
2023-06-13T03:12:44.491Z,67.86
2023-06-13T03:13:44.473Z,67.86
2023-06-13T03:14:44.468Z,67.55
2023-06-13T03:15:44.506Z,67.55
2023-06-13T03:16:44.542Z,68.07
2023-06-13T03:17:45.017Z,67.86
2023-06-13T03:18:44.452Z,68.27
2023-06-13T03:19:44.414Z,68.37
2023-06-13T03:20:44.424Z,68.48
2023-06-13T03:21:44.408Z,68.37
2023-06-13T03:22:44.400Z,68.27
2023-06-13T03:23:44.387Z,68.37
2023-06-13T03:24:44.373Z,68.27
2023-06-13T03:25:44.367Z,67.96
2023-06-13T03:26:44.385Z,68.17
2023-06-13T03:27:44.362Z,68.57
2023-06-13T03:28:44.349Z,68.48
2023-06-13T03:29:44.310Z,68.68
2023-06-13T03:30:46.369Z,68.78
2023-06-13T03:31:44.326Z,68.78
2023-06-13T03:32:44.360Z,68.88
2023-06-13T03:33:44.271Z,68.98
2023-06-13T03:34:44.503Z,68.78
2023-06-13T03:35:44.245Z,69.09
2023-06-13T03:36:44.276Z,68.98
2023-06-13T03:37:44.216Z,69.15
2023-06-13T03:38:44.221Z,69.29
2023-06-13T03:39:44.205Z,69.29
2023-06-13T03:40:44.198Z,69.09
2023-06-13T03:41:44.223Z,68.88
2023-06-13T03:42:44.741Z,69.09
2023-06-13T03:43:44.189Z,68.98
2023-06-13T03:44:44.152Z,69.19
2023-06-13T03:45:44.141Z,69.39
2023-06-13T03:46:44.133Z,69.49
2023-06-13T03:47:44.295Z,69.90
2023-06-13T03:48:54.894Z,69.80
2023-06-13T03:49:44.092Z,70.31
2023-06-13T03:50:44.114Z,70.31
2023-06-13T03:51:44.092Z,70.72
2023-06-13T03:52:44.120Z,70.61
2023-06-13T03:53:44.061Z,70.41
2023-06-13T03:54:44.105Z,70.82
2023-06-13T03:55:45.396Z,71.02
2023-06-13T03:56:44.025Z,70.72
2023-06-13T03:57:44.014Z,70.51
2023-06-13T03:58:44.518Z,71.12
2023-06-13T03:59:44.013Z,71.43
2023-06-13T04:00:44.031Z,70.82
2023-06-13T04:01:43.977Z,70.92
2023-06-13T04:02:44.043Z,70.72
2023-06-13T04:03:44.096Z,71.53
2023-06-13T04:04:44.080Z,71.53
2023-06-13T04:05:44.057Z,71.33
2023-06-13T04:06:43.949Z,71.33
2023-06-13T04:07:43.920Z,71.73
2023-06-13T04:08:43.925Z,72.04
2023-06-13T04:09:43.895Z,72.24
2023-06-13T04:10:43.941Z,71.94
2023-06-13T04:11:43.884Z,72.04
2023-06-13T04:12:43.864Z,71.12
2023-06-13T04:13:43.842Z,72.14
2023-06-13T04:14:43.833Z,71.33
2023-06-13T04:15:43.872Z,71.84
2023-06-13T04:16:43.887Z,71.73
2023-06-13T04:17:47.733Z,72.34
2023-06-13T04:18:43.805Z,72.04
2023-06-13T04:19:43.813Z,72.34
2023-06-13T04:20:43.792Z,71.94
2023-06-13T04:21:43.760Z,72.24
2023-06-13T04:22:43.759Z,73.88
2023-06-13T04:23:43.768Z,72.82
2023-06-13T04:24:43.780Z,72.82
2023-06-13T04:25:43.757Z,73.02
2023-06-13T04:26:43.714Z,73.54
2023-06-13T04:27:43.702Z,74.15
2023-06-13T04:28:43.694Z,73.64
2023-06-13T04:29:43.671Z,73.30
2023-06-13T04:30:43.710Z,73.30
2023-06-13T04:31:43.661Z,72.58
2023-06-13T04:32:43.692Z,73.10
2023-06-13T04:33:43.776Z,73.40
2023-06-13T04:34:43.636Z,72.96
2023-06-13T04:35:43.602Z,72.45
2023-06-13T04:36:43.632Z,72.25
2023-06-13T04:37:43.602Z,72.41
2023-06-13T04:38:43.578Z,71.70
2023-06-13T04:39:43.556Z,71.09
2023-06-13T04:40:43.574Z,71.57
2023-06-13T04:41:43.580Z,71.26
2023-06-13T04:42:43.537Z,71.03
2023-06-13T04:43:43.517Z,70.52
2023-06-13T04:44:43.526Z,70.11
2023-06-13T04:45:43.524Z,70.11
2023-06-13T04:46:43.522Z,69.70
2023-06-13T04:47:55.635Z,69.78
2023-06-13T04:48:43.526Z,69.67
2023-06-13T04:49:43.455Z,69.37
2023-06-13T04:50:43.458Z,68.32
2023-06-13T04:51:43.474Z,68.12
2023-06-13T04:52:43.431Z,67.61
2023-06-13T04:53:43.413Z,67.50
2023-06-13T04:54:43.417Z,67.50
2023-06-13T04:55:43.417Z,67.30
2023-06-13T04:56:43.424Z,67.10
2023-06-13T04:57:43.371Z,66.97
2023-06-13T04:58:43.379Z,66.56
2023-06-13T04:59:43.352Z,66.26
2023-06-13T05:00:43.354Z,65.62
2023-06-13T05:01:43.517Z,65.31
2023-06-13T05:02:43.380Z,64.98
2023-06-13T05:03:43.334Z,64.17
2023-06-13T05:04:43.310Z,63.73
2023-06-13T05:05:43.283Z,63.02
2023-06-13T05:06:43.358Z,62.29
2023-06-13T05:07:43.263Z,61.78
2023-06-13T05:08:43.277Z,61.24
2023-06-13T05:09:43.241Z,60.84
2023-06-13T05:10:43.262Z,60.61
2023-06-13T05:11:43.224Z,60.50
2023-06-13T05:12:43.253Z,60.41
2023-06-13T05:13:43.215Z,60.20
2023-06-13T05:14:43.198Z,59.36
2023-06-13T05:15:43.189Z,58.56
2023-06-13T05:16:43.231Z,58.45
2023-06-13T05:17:43.283Z,58.15
2023-06-13T05:18:43.186Z,58.15
2023-06-13T05:19:43.150Z,57.85
2023-06-13T05:20:43.146Z,57.95
2023-06-13T05:21:43.120Z,57.62
2023-06-13T05:22:43.177Z,57.31
2023-06-13T05:23:43.787Z,57.11
2023-06-13T05:24:44.633Z,56.81
2023-06-13T05:25:43.159Z,56.48
2023-06-13T05:26:43.754Z,56.48
2023-06-13T05:27:43.704Z,56.68
2023-06-13T05:28:44.716Z,56.05
2023-06-13T05:29:44.664Z,55.24
2023-06-13T05:30:43.036Z,54.41
2023-06-13T05:31:43.808Z,53.67
2023-06-13T05:32:43.037Z,53.25
2023-06-13T05:33:43.758Z,52.74
2023-06-13T05:34:47.742Z,52.31
2023-06-13T05:35:56.301Z,51.79
2023-06-13T05:36:44.585Z,51.38
2023-06-13T05:37:42.940Z,50.68
2023-06-13T05:38:42.966Z,50.48
2023-06-13T05:39:43.033Z,50.78
2023-06-13T05:40:42.913Z,50.78
2023-06-13T05:41:43.600Z,50.17
2023-06-13T05:42:42.918Z,50.56
2023-06-13T05:43:44.528Z,50.56
2023-06-13T05:44:42.934Z,50.96
2023-06-13T05:45:42.889Z,50.85
2023-06-13T05:46:43.131Z,50.56
2023-06-13T05:47:42.928Z,50.76
2023-06-13T05:48:42.879Z,50.13
2023-06-13T05:49:42.818Z,49.52
2023-06-13T05:50:42.858Z,48.99
2023-06-13T05:51:42.846Z,48.79
2023-06-13T05:52:42.796Z,49.42
2023-06-13T05:53:42.776Z,49.50
2023-06-13T05:54:42.775Z,48.99
2023-06-13T05:55:42.805Z,48.79
2023-06-13T05:56:42.762Z,48.47
2023-06-13T05:57:42.734Z,48.67
2023-06-13T05:58:42.746Z,48.87
2023-06-13T05:59:43.299Z,47.56
2023-06-13T06:00:42.754Z,48.19
2023-06-13T06:01:42.729Z,48.17
2023-06-13T06:02:42.789Z,48.07
2023-06-13T06:03:42.790Z,47.56
2023-06-13T06:04:43.868Z,47.24
2023-06-13T06:05:43.822Z,46.94
2023-06-13T06:06:42.730Z,46.41
2023-06-13T06:07:44.570Z,46.31
2023-06-13T06:08:42.932Z,46.09
2023-06-13T06:09:43.418Z,45.59
2023-06-13T06:10:43.193Z,45.79
2023-06-13T06:11:44.698Z,45.57
2023-06-13T06:12:43.572Z,45.14
2023-06-13T06:13:44.165Z,44.95
2023-06-13T06:14:45.097Z,44.82
2023-06-13T06:15:43.591Z,45.12
2023-06-13T06:16:42.570Z,45.12
2023-06-13T06:17:43.264Z,44.80
2023-06-13T06:18:44.408Z,42.96
2023-06-13T06:19:44.086Z,41.91
2023-06-13T06:20:43.664Z,40.75
2023-06-13T06:21:44.057Z,39.74
2023-06-13T06:22:43.081Z,38.82
2023-06-13T06:23:44.245Z,38.31
2023-06-13T06:24:42.576Z,37.68
2023-06-13T06:25:42.461Z,37.68
2023-06-13T06:26:42.445Z,37.17
2023-06-13T06:27:42.492Z,36.14
2023-06-13T06:28:42.440Z,36.04
2023-06-13T06:29:42.973Z,36.04
2023-06-13T06:30:43.119Z,35.31
2023-06-13T06:31:42.385Z,35.33
2023-06-13T06:32:42.374Z,35.21
2023-06-13T06:33:42.380Z,34.59
2023-06-13T06:34:42.410Z,34.50
2023-06-13T06:35:42.356Z,34.59
2023-06-13T06:36:42.322Z,35.01
2023-06-13T06:37:43.314Z,35.66
2023-06-13T06:38:42.302Z,36.25
2023-06-13T06:39:42.360Z,36.35
2023-06-13T06:40:42.317Z,35.94
2023-06-13T06:41:43.069Z,34.40
2023-06-13T06:42:42.260Z,34.50
2023-06-13T06:43:42.274Z,34.61
2023-06-13T06:44:45.731Z,36.18
2023-06-13T06:45:42.255Z,36.04
2023-06-13T06:46:42.349Z,35.21
2023-06-13T06:47:42.251Z,34.48
2023-06-13T06:48:42.208Z,33.97
2023-06-13T06:49:42.380Z,33.75
2023-06-13T06:50:42.173Z,33.14
2023-06-13T06:51:42.168Z,33.25
2023-06-13T06:52:42.954Z,33.36
2023-06-13T06:53:42.139Z,33.87
2023-06-13T06:54:42.181Z,34.27
2023-06-13T06:55:42.132Z,35.61
2023-06-13T06:56:42.110Z,35.61
2023-06-13T06:57:42.130Z,35.69
2023-06-13T06:58:42.077Z,35.27
2023-06-13T06:59:42.086Z,34.23
2023-06-13T07:00:42.257Z,33.00
2023-06-13T07:01:42.108Z,31.87
2023-06-13T07:02:42.072Z,30.97
2023-06-13T07:03:42.065Z,30.85
2023-06-13T07:04:42.058Z,30.34
2023-06-13T07:05:42.050Z,30.34
2023-06-13T07:06:41.998Z,31.05
2023-06-13T07:07:41.998Z,31.38
2023-06-13T07:08:42.026Z,32.82
2023-06-13T07:09:41.996Z,34.06
2023-06-13T07:10:42.043Z,34.28
2023-06-13T07:11:41.976Z,34.18
2023-06-13T07:12:41.956Z,33.78
2023-06-13T07:13:41.939Z,33.37
2023-06-13T07:14:41.929Z,33.48
2023-06-13T07:15:41.928Z,33.15
2023-06-13T07:16:41.977Z,32.54
2023-06-13T07:17:42.001Z,32.45
2023-06-13T07:18:41.871Z,31.82
2023-06-13T07:19:42.514Z,30.99
2023-06-13T07:20:41.889Z,30.29
2023-06-13T07:21:41.923Z,30.18
2023-06-13T07:22:41.886Z,30.68
2023-06-13T07:23:50.046Z,30.99
2023-06-13T07:24:41.869Z,31.72
2023-06-13T07:25:41.805Z,30.93
2023-06-13T07:26:41.792Z,30.71
2023-06-13T07:27:41.784Z,30.62
2023-06-13T07:28:41.831Z,30.71
2023-06-13T07:29:41.768Z,29.54
2023-06-13T07:30:41.754Z,29.85
2023-06-13T07:31:41.772Z,30.05
2023-06-13T07:32:41.809Z,30.38
2023-06-13T07:33:41.724Z,30.57
2023-06-13T07:34:59.812Z,30.07
2023-06-13T07:35:41.709Z,29.85
2023-06-13T07:36:41.731Z,29.75
2023-06-13T07:37:41.758Z,30.05
2023-06-13T07:38:41.668Z,29.98
2023-06-13T07:39:41.709Z,30.29
2023-06-13T07:40:41.647Z,30.89
2023-06-13T07:41:41.643Z,30.79
2023-06-13T07:42:41.632Z,30.79
2023-06-13T07:43:41.642Z,30.29
2023-06-13T07:44:41.671Z,29.90
2023-06-13T07:45:41.682Z,29.68
2023-06-13T07:46:41.573Z,29.28
2023-06-13T07:47:41.675Z,28.77
2023-06-13T07:48:41.565Z,28.97
2023-06-13T07:49:41.557Z,28.75
2023-06-13T07:50:41.530Z,28.96
2023-06-13T07:51:41.533Z,28.22
2023-06-13T07:52:41.556Z,28.53
2023-06-13T07:53:41.512Z,29.47
2023-06-13T07:54:41.489Z,30.47
2023-06-13T07:55:41.494Z,30.05
2023-06-13T07:56:41.526Z,29.11
2023-06-13T07:57:57.896Z,27.97
2023-06-13T07:58:41.471Z,26.96
2023-06-13T07:59:41.471Z,26.66
2023-06-13T08:00:41.439Z,26.65
2023-06-13T08:01:42.248Z,27.47
2023-06-13T08:02:42.176Z,27.15
2023-06-13T08:03:42.235Z,26.94
2023-06-13T08:04:52.949Z,27.35
2023-06-13T08:05:41.453Z,27.25
2023-06-13T08:06:41.373Z,26.94
2023-06-13T08:07:41.418Z,25.93
2023-06-13T08:08:41.432Z,26.65
2023-06-13T08:09:41.433Z,26.97
2023-06-13T08:10:41.339Z,27.86
2023-06-13T08:11:41.340Z,27.14
2023-06-13T08:12:41.332Z,26.13
2023-06-13T08:13:41.406Z,26.21
2023-06-13T08:14:41.292Z,25.39
2023-06-13T08:15:41.386Z,24.68
2023-06-13T08:16:41.385Z,24.36
2023-06-13T08:17:41.341Z,24.16
2023-06-13T08:18:41.299Z,23.77
2023-06-13T08:19:41.309Z,24.48
2023-06-13T08:20:41.474Z,24.98
2023-06-13T08:21:41.230Z,24.87
2023-06-13T08:22:41.248Z,24.36
2023-06-13T08:23:41.259Z,24.66
2023-06-13T08:24:41.274Z,24.98
2023-06-13T08:25:41.973Z,25.68
2023-06-13T08:26:44.888Z,25.59
2023-06-13T08:27:42.489Z,24.86
2023-06-13T08:28:42.827Z,23.75
2023-06-13T08:29:41.154Z,24.70
2023-06-13T08:30:41.241Z,26.60
2023-06-13T08:31:49.359Z,28.31
2023-06-13T08:32:41.926Z,28.00
2023-06-13T08:33:48.646Z,28.80
2023-06-13T08:34:41.105Z,29.00
2023-06-13T08:35:41.855Z,28.59
2023-06-13T08:36:41.765Z,28.08
2023-06-13T08:37:41.761Z,27.18
2023-06-13T08:39:43.319Z,26.28
2023-06-13T08:40:41.302Z,25.97
2023-06-13T08:41:41.340Z,25.56
2023-06-13T08:42:41.632Z,24.84
2023-06-13T08:43:41.022Z,24.32
2023-06-13T08:44:42.637Z,24.21
2023-06-13T08:45:41.046Z,23.91
2023-06-13T08:46:41.014Z,23.93
2023-06-13T08:47:41.320Z,24.32
2023-06-13T08:48:40.969Z,24.33
2023-06-13T08:49:41.060Z,23.93
2023-06-13T08:50:40.935Z,23.21
2023-06-13T08:51:40.956Z,23.71
2023-06-13T08:52:41.017Z,23.00
2023-06-13T08:53:40.940Z,22.72
2023-06-13T08:54:54.271Z,22.52
2023-06-13T08:56:43.648Z,22.31
2023-06-13T08:57:40.863Z,23.24
2023-06-13T08:58:40.889Z,23.42
2023-06-13T08:59:40.873Z,23.52
2023-06-13T09:00:40.859Z,23.62
2023-06-13T09:01:40.952Z,23.52
2023-06-13T09:02:40.801Z,23.32
2023-06-13T09:03:40.939Z,23.43
2023-06-13T09:04:40.813Z,23.53
2023-06-13T09:05:40.815Z,23.83
2023-06-13T09:06:40.827Z,23.30
2023-06-13T09:07:40.773Z,22.89
2023-06-13T09:08:40.758Z,23.22
2023-06-13T09:09:40.791Z,24.02
2023-06-13T09:10:40.761Z,23.91
2023-06-13T09:11:40.850Z,23.69
2023-06-13T09:12:40.723Z,23.78
2023-06-13T09:13:40.721Z,22.66
2023-06-13T09:14:40.744Z,22.16
2023-06-13T09:15:40.743Z,22.38
2023-06-13T09:16:40.803Z,23.71
2023-06-13T09:17:40.923Z,23.91
2023-06-13T09:18:40.695Z,25.66
2023-06-13T09:19:40.680Z,25.95
2023-06-13T09:20:40.932Z,25.12
2023-06-13T09:21:40.650Z,24.71
2023-06-13T09:22:40.706Z,25.54
2023-06-13T09:23:40.797Z,25.62
2023-06-13T09:24:43.676Z,25.83
2023-06-13T09:25:40.613Z,24.81
2023-06-13T09:26:40.583Z,24.29
2023-06-13T09:27:40.624Z,23.50
2023-06-13T09:28:40.596Z,23.69
2023-06-13T09:29:40.572Z,23.68
2023-06-13T09:30:40.581Z,22.88
2023-06-13T09:31:40.552Z,22.96
2023-06-13T09:32:40.598Z,22.77
2023-06-13T09:33:40.546Z,22.16
2023-06-13T09:34:40.587Z,22.05
2023-06-13T09:35:40.743Z,21.75
2023-06-13T09:36:40.510Z,22.06
2023-06-13T09:37:40.534Z,22.36
2023-06-13T09:38:40.463Z,22.35
2023-06-13T09:39:40.472Z,21.94
2023-06-13T09:40:40.470Z,21.44
2023-06-13T09:41:40.723Z,21.13
2023-06-13T09:42:41.109Z,20.25
2023-06-13T09:43:40.472Z,19.79
2023-06-13T09:44:50.850Z,19.98
2023-06-13T09:45:40.439Z,19.98
2023-06-13T09:46:40.403Z,20.37
2023-06-13T09:47:40.425Z,20.45
2023-06-13T09:48:40.489Z,20.46
2023-06-13T09:49:48.607Z,20.76
2023-06-13T09:53:22.219Z,21.59
2023-06-13T09:54:02.161Z,21.58
2023-06-13T09:55:02.170Z,20.77
2023-06-13T09:57:02.138Z,19.67
2023-06-13T09:59:02.107Z,19.45
2023-06-13T10:00:02.156Z,18.46
2023-06-13T10:01:02.076Z,18.05
2023-06-13T10:02:02.131Z,17.76
2023-06-13T10:03:12.220Z,17.97
2023-06-13T10:04:02.050Z,18.56
2023-06-13T10:05:02.042Z,18.96
2023-06-13T10:06:02.242Z,19.05
2023-06-13T10:07:02.004Z,18.75
2023-06-13T10:08:02.058Z,18.96
2023-06-13T10:09:02.772Z,18.85
2023-06-13T10:10:02.275Z,18.66
2023-06-13T10:11:02.044Z,17.96
2023-06-13T10:12:01.999Z,17.36
2023-06-13T10:13:01.993Z,17.66
2023-06-13T10:14:03.587Z,17.55
2023-06-13T10:15:02.282Z,17.27
2023-06-13T10:16:02.088Z,17.18
2023-06-13T10:17:09.242Z,17.48
2023-06-13T10:18:03.083Z,17.29
2023-06-13T10:19:02.052Z,17.10
2023-06-13T10:20:02.094Z,17.60
2023-06-13T10:21:03.063Z,17.22
2023-06-13T10:22:01.889Z,18.33
2023-06-13T10:23:03.425Z,18.63
2023-06-13T10:24:02.697Z,19.12
2023-06-13T10:25:01.933Z,19.53
2023-06-13T10:26:03.170Z,19.42
2023-06-13T10:27:02.574Z,19.44
2023-06-13T10:28:04.130Z,20.15
2023-06-13T10:29:03.542Z,20.14
2023-06-13T10:30:01.809Z,19.34
2023-06-13T10:31:08.333Z,20.35
2023-06-13T10:32:01.850Z,20.46
2023-06-13T10:33:01.870Z,21.26
2023-06-13T10:34:02.239Z,21.06
2023-06-13T10:35:01.776Z,20.46
2023-06-13T10:36:01.913Z,20.17
2023-06-13T10:37:02.000Z,20.45
2023-06-13T10:38:02.428Z,19.95
2023-06-13T10:39:03.104Z,20.54
2023-06-13T10:40:01.735Z,20.75
2023-06-13T10:41:02.357Z,20.24
2023-06-13T10:42:01.752Z,21.05
2023-06-13T10:43:01.684Z,20.82
2023-06-13T10:44:02.306Z,20.41
2023-06-13T10:45:01.859Z,19.59
2023-06-13T10:46:02.451Z,19.08
2023-06-13T10:47:03.212Z,19.37
2023-06-13T10:48:03.409Z,19.67
2023-06-13T10:49:02.039Z,19.57
2023-06-13T10:50:03.248Z,19.67
2023-06-13T10:51:01.648Z,19.46
2023-06-13T10:52:01.604Z,19.47
2023-06-13T10:53:04.207Z,20.29
2023-06-13T10:54:01.752Z,21.09
2023-06-13T10:55:01.589Z,20.59
2023-06-13T10:56:02.326Z,21.50
2023-06-13T10:57:04.835Z,22.11
2023-06-13T10:58:01.606Z,22.20
2023-06-13T10:59:01.548Z,22.31
2023-06-13T11:00:01.585Z,20.78
2023-06-13T11:01:02.298Z,19.10
2023-06-13T11:02:02.251Z,18.98
2023-06-13T11:03:01.548Z,19.18
2023-06-13T11:04:01.628Z,19.18
2023-06-13T11:05:01.549Z,19.26
2023-06-13T11:06:01.473Z,18.85
2023-06-13T11:07:01.474Z,18.64
2023-06-13T11:08:02.041Z,18.35
2023-06-13T11:09:01.494Z,19.16
2023-06-13T11:10:03.237Z,19.96
2023-06-13T11:11:01.575Z,19.96
2023-06-13T11:12:01.431Z,19.96
2023-06-13T11:13:01.405Z,19.99
2023-06-13T11:14:03.062Z,20.29
2023-06-13T11:15:03.015Z,20.01
2023-06-13T11:16:03.026Z,20.73
2023-06-13T11:17:03.231Z,21.64
2023-06-13T11:18:03.095Z,21.73
2023-06-13T11:19:01.359Z,22.55
2023-06-13T11:20:02.138Z,23.37
2023-06-13T11:21:01.357Z,24.27
2023-06-13T11:22:05.698Z,24.26
2023-06-13T11:23:01.309Z,24.27
2023-06-13T11:24:01.319Z,24.56
2023-06-13T11:25:01.323Z,24.55
2023-06-13T11:26:01.287Z,24.15
2023-06-13T11:27:01.314Z,23.94
2023-06-13T11:28:01.302Z,23.82
2023-06-13T11:29:01.277Z,23.52
2023-06-13T11:30:01.235Z,23.32
2023-06-13T11:31:01.266Z,23.42
2023-06-13T11:32:01.343Z,23.13
2023-06-13T11:33:01.272Z,23.14
2023-06-13T11:34:01.206Z,22.44
2023-06-13T11:35:01.203Z,21.34
2023-06-13T11:36:01.190Z,20.59
2023-06-13T11:37:01.227Z,20.01
2023-06-13T11:38:01.190Z,20.80
2023-06-13T11:39:01.176Z,20.21
2023-06-13T11:40:18.170Z,19.74
2023-06-13T11:41:01.126Z,20.47
2023-06-13T11:42:01.122Z,20.76
2023-06-13T11:43:01.856Z,21.26
2023-06-13T11:44:01.136Z,21.36
2023-06-13T11:45:01.320Z,21.64
2023-06-13T11:46:01.117Z,22.23
2023-06-13T11:47:01.351Z,21.39
2023-06-13T11:48:01.542Z,20.07
2023-06-13T11:49:01.092Z,19.06
2023-06-13T11:50:01.095Z,18.35
2023-06-13T11:51:01.042Z,17.84
2023-06-13T11:52:01.044Z,17.54
2023-06-13T11:53:01.081Z,17.74
2023-06-13T11:54:01.056Z,17.74
2023-06-13T11:55:01.161Z,17.63
2023-06-13T11:56:01.020Z,17.62
2023-06-13T11:57:01.002Z,18.12
2023-06-13T11:58:00.994Z,18.13
2023-06-13T11:59:01.016Z,18.92
2023-06-13T12:00:00.981Z,18.70
2023-06-13T12:01:00.914Z,17.61
2023-06-13T12:02:01.027Z,16.80
2023-06-13T12:03:01.122Z,16.41
2023-06-13T12:04:01.090Z,16.19
2023-06-13T12:05:00.977Z,16.09
2023-06-13T12:06:00.928Z,17.79
2023-06-13T12:07:00.876Z,20.12
2023-06-13T12:08:00.907Z,20.46
2023-06-13T12:09:00.868Z,20.67
2023-06-13T12:10:00.886Z,20.64
2023-06-13T12:11:02.431Z,20.20
2023-06-13T12:12:00.835Z,19.62
2023-06-13T12:13:00.815Z,20.01
2023-06-13T12:14:00.821Z,19.20
2023-06-13T12:15:00.891Z,18.12
2023-06-13T12:16:00.847Z,18.02
2023-06-13T12:17:00.818Z,17.42
2023-06-13T12:18:00.858Z,17.84
2023-06-13T12:19:00.767Z,18.73
2023-06-13T12:20:00.807Z,18.54
2023-06-13T12:21:00.812Z,18.03
2023-06-13T12:22:00.728Z,17.55
2023-06-13T12:23:00.744Z,18.04
2023-06-13T12:24:00.764Z,18.54
2023-06-13T12:25:00.753Z,18.95
2023-06-13T12:26:00.728Z,18.52
2023-06-13T12:27:00.689Z,18.82
2023-06-13T12:28:00.711Z,18.02
2023-06-13T12:29:01.455Z,17.62
2023-06-13T12:30:00.664Z,18.13
2023-06-13T12:31:00.759Z,18.23
2023-06-13T12:32:00.647Z,18.31
2023-06-13T12:33:00.704Z,17.49
2023-06-13T12:34:00.604Z,16.67
2023-06-13T12:35:00.659Z,16.58
2023-06-13T12:36:00.643Z,16.27
2023-06-13T12:37:00.598Z,16.47
2023-06-13T12:38:00.601Z,16.05
2023-06-13T12:39:00.615Z,16.47
2023-06-13T12:40:00.577Z,17.30
2023-06-13T12:41:00.564Z,18.52
2023-06-13T12:42:00.552Z,19.84
2023-06-13T12:43:00.541Z,20.56
2023-06-13T12:44:00.569Z,21.15
2023-06-13T12:45:00.545Z,20.14
2023-06-13T12:46:00.512Z,19.01
2023-06-13T12:47:00.575Z,18.29
2023-06-13T12:48:00.525Z,17.79
2023-06-13T12:49:00.510Z,17.58
2023-06-13T12:50:00.521Z,17.68
2023-06-13T12:51:00.489Z,18.37
2023-06-13T12:52:00.467Z,18.16
2023-06-13T12:53:00.450Z,18.37
2023-06-13T12:54:00.479Z,17.96
2023-06-13T12:55:00.467Z,18.25
2023-06-13T12:56:00.454Z,18.25
2023-06-13T12:57:00.402Z,19.08
2023-06-13T12:58:00.390Z,20.20
2023-06-13T12:59:00.456Z,20.09